Time;durP1;ratioP1;P1;durP2;ratioP2;P2;SDS_P1;SDS_P2;PMS_P1;PMS_P2;Temp;Humidity;BMP_temperature;BMP_pressure;BME280_temperature;BME280_humidity;BME280_pressure;Samples;Min_cycle;Max_cycle;Signal;HPM_P1;HPM_P2
2022/04/24 00:01:41;;;;;;;;;;;;;;;;;;5122294;28;19965;-79
2022/04/24 00:04:06;;;;;;;;;;;;;;;;;;5123018;28;19919;-79
2022/04/24 00:06:32;;;;;;;;;;;;;;;;;;5118513;28;19923;-80
2022/04/24 00:08:58;;;;;;;;;;;;;;;;;;5100472;28;19916;-79
2022/04/24 00:11:23;;;;;;;;;;;;;;;;;;5101615;28;19916;-79
2022/04/24 00:13:49;;;;;;;;;;;;;;;;;;5100272;28;19937;-79
2022/04/24 00:16:14;;;;;;;;;;;;;;;;;;5101988;28;19991;-79
2022/04/24 00:18:40;;;;;;;;;;;;;;;;;;5101330;28;20301;-80
2022/04/24 00:21:05;;;;;;;;;;;;;;;;;;5101051;28;19976;-79
2022/04/24 00:23:31;;;;;;;;;;;;;;;;;;5100898;28;20317;-78
2022/04/24 00:25:57;;;;;;;;;;;;;;;;;;5100911;28;19955;-78
2022/04/24 00:28:22;;;;;;;;;;;;;;;;;;5100522;28;19965;-78
2022/04/24 00:30:47;;;;;;;;;;;;;;;;;;5095225;28;19916;-78
2022/04/24 00:33:13;;;;;;;;;;;;;;;;;;5079259;28;19916;-78
2022/04/24 00:35:38;;;;;;;;;;;;;;;;;;5078877;28;19917;-79
2022/04/24 00:38:04;;;;;;;;;;;;;;;;;;5077530;28;19916;-78
2022/04/24 00:40:29;;;;;;;;;;;;;;;;;;5061336;28;20336;-80
2022/04/24 00:42:55;;;;;;;;;;;;;;;;;;5079652;28;19971;-78
2022/04/24 00:45:20;;;;;;;;;;;;;;;;;;5079352;28;19923;-78
2022/04/24 00:47:47;;;;;;;;;;;;;;;;;;5078468;28;19920;-78
2022/04/24 00:50:13;;;;;;;;;;;;;;;;;;5080320;28;20435;-78
2022/04/24 00:52:38;;;;;;;;;;;;;;;;;;5079481;28;20285;-78
2022/04/24 00:55:04;;;;;;;;;;;;;;;;;;5078853;28;20049;-78
2022/04/24 00:57:29;;;;;;;;;;;;;;;;;;5077637;28;20302;-78
2022/04/24 00:59:55;;;;;;;;;;;;;;;;;;5083225;28;19916;-78
2022/04/24 01:02:20;;;;;;;;;;;;;;;;;;5119243;28;19915;-78
2022/04/24 01:04:45;;;;;;;;;;;;;;;;;;5119520;28;19920;-78
2022/04/24 01:07:11;;;;;;;;;;;;;;;;;;5119861;28;19916;-78
2022/04/24 01:09:36;;;;;;;;;;;;;;;;;;5119758;28;19919;-80
2022/04/24 01:12:02;;;;;;;;;;;;;;;;;;5118022;28;19938;-79
2022/04/24 01:14:31;;;;;;;;;;;;;;;;;;5113185;28;19916;-78
2022/04/24 01:16:56;;;;;;;;;;;;;;;;;;5097363;28;20362;-78
2022/04/24 01:19:22;;;;;;;;;;;;;;;;;;5099108;28;19937;-80
2022/04/24 01:21:48;;;;;;;;;;;;;;;;;;5098256;28;19916;-78
2022/04/24 01:24:14;;;;;;;;;;;;;;;;;;5098249;28;20440;-78
2022/04/24 01:26:40;;;;;;;;;;;;;;;;;;5098547;28;19916;-78
2022/04/24 01:29:05;;;;;;;;;;;;;;;;;;5098060;28;20479;-78
2022/04/24 01:31:31;;;;;;;;;;;;;;;;;;5114988;28;19916;-79
2022/04/24 01:33:57;;;;;;;;;;;;;;;;;;5100003;28;19972;-78
2022/04/24 01:36:22;;;;;;;;;;;;;;;;;;5117064;28;19916;-79
2022/04/24 01:38:48;;;;;;;;;;;;;;;;;;5095678;28;19976;-80
2022/04/24 01:41:13;;;;;;;;;;;;;;;;;;5078179;28;19916;-80
2022/04/24 01:43:39;;;;;;;;;;;;;;;;;;5079642;28;20338;-79
2022/04/24 01:46:05;;;;;;;;;;;;;;;;;;5078744;28;20351;-80
2022/04/24 01:48:33;;;;;;;;;;;;;;;;;;5079959;28;20298;-79
2022/04/24 01:50:59;;;;;;;;;;;;;;;;;;5079605;28;20378;-78
2022/04/24 01:53:24;;;;;;;;;;;;;;;;;;5079850;28;20370;-78
2022/04/24 01:55:50;;;;;;;;;;;;;;;;;;5078481;28;20023;-79
2022/04/24 01:58:15;;;;;;;;;;;;;;;;;;5079424;28;19927;-78
2022/04/24 02:00:40;;;;;;;;;;;;;;;;;;5079119;28;19923;-78
2022/04/24 02:03:06;;;;;;;;;;;;;;;;;;5079640;28;20382;-78
2022/04/24 02:05:31;;;;;;;;;;;;;;;;;;5078821;28;19923;-78
2022/04/24 02:07:57;;;;;;;;;;;;;;;;;;5086718;28;19916;-79
2022/04/24 02:10:22;;;;;;;;;;;;;;;;;;5118260;28;19954;-81
2022/04/24 02:12:47;;;;;;;;;;;;;;;;;;5117795;28;19996;-78
2022/04/24 02:15:12;;;;;;;;;;;;;;;;;;5094673;28;20268;-78
2022/04/24 02:17:38;;;;;;;;;;;;;;;;;;5078965;28;19917;-78
2022/04/24 02:20:03;;;;;;;;;;;;;;;;;;5078307;28;19922;-78
2022/04/24 02:22:35;;;;;;;;;;;;;;;;;;5077041;28;19916;-78
2022/04/24 02:25:00;;;;;;;;;;;;;;;;;;5077834;28;19962;-78
2022/04/24 02:27:26;;;;;;;;;;;;;;;;;;5077886;28;19921;-78
2022/04/24 02:29:51;;;;;;;;;;;;;;;;;;5078036;28;20459;-78
2022/04/24 02:32:17;;;;;;;;;;;;;;;;;;5077990;28;19921;-78
2022/04/24 02:34:42;;;;;;;;;;;;;;;;;;5077630;28;19917;-78
2022/04/24 02:37:07;;;;;;;;;;;;;;;;;;5077324;28;19917;-79
2022/04/24 02:39:33;;;;;;;;;;;;;;;;;;5077276;28;20301;-80
2022/04/24 02:41:58;;;;;;;;;;;;;;;;;;5075387;28;19966;-78
2022/04/24 02:44:23;;;;;;;;;;;;;;;;;;5081720;28;20412;-78
2022/04/24 02:46:49;;;;;;;;;;;;;;;;;;5097465;28;19918;-78
2022/04/24 02:49:14;;;;;;;;;;;;;;;;;;5107970;28;19923;-78
2022/04/24 02:51:48;;;;;;;;;;;;;;;;;;5117257;28;19975;-78
2022/04/24 02:54:13;;;;;;;;;;;;;;;;;;5116488;28;19916;-80
2022/04/24 02:56:39;;;;;;;;;;;;;;;;;;5119778;28;19950;-80
2022/04/24 02:59:04;;;;;;;;;;;;;;;;;;5120743;28;19912;-79
2022/04/24 03:01:34;;;;;;;;;;;;;;;;;;5119521;28;19916;-79
2022/04/24 03:03:59;;;;;;;;;;;;;;;;;;5119664;28;20385;-79
2022/04/24 03:06:25;;;;;;;;;;;;;;;;;;5119398;28;19916;-80
2022/04/24 03:08:50;;;;;;;;;;;;;;;;;;5119308;28;19951;-80
2022/04/24 03:11:16;;;;;;;;;;;;;;;;;;5119445;28;20397;-79
2022/04/24 03:13:41;;;;;;;;;;;;;;;;;;5118391;28;19916;-79
2022/04/24 03:16:07;;;;;;;;;;;;;;;;;;5080289;28;19916;-79
2022/04/24 03:18:32;;;;;;;;;;;;;;;;;;5080053;28;19975;-78
2022/04/24 03:20:58;;;;;;;;;;;;;;;;;;5082728;28;19924;-80
2022/04/24 03:23:23;;;;;;;;;;;;;;;;;;5081854;28;19920;-78
2022/04/24 03:25:50;;;;;;;;;;;;;;;;;;5082285;28;19923;-79
2022/04/24 03:28:16;;;;;;;;;;;;;;;;;;5082194;28;19916;-78
2022/04/24 03:30:41;;;;;;;;;;;;;;;;;;5091671;28;19922;-80
2022/04/24 03:33:06;;;;;;;;;;;;;;;;;;5102332;28;19923;-79
2022/04/24 03:35:32;;;;;;;;;;;;;;;;;;5100882;28;19916;-79
2022/04/24 03:37:57;;;;;;;;;;;;;;;;;;5100791;28;20025;-79
2022/04/24 03:40:23;;;;;;;;;;;;;;;;;;5102638;28;19923;-79
2022/04/24 03:42:48;;;;;;;;;;;;;;;;;;5102455;28;19920;-79
2022/04/24 03:45:13;;;;;;;;;;;;;;;;;;5102190;28;19958;-79
2022/04/24 03:47:39;;;;;;;;;;;;;;;;;;5101120;28;19941;-78
2022/04/24 03:50:05;;;;;;;;;;;;;;;;;;5122132;28;19916;-80
2022/04/24 03:52:30;;;;;;;;;;;;;;;;;;5122202;28;20010;-79
2022/04/24 03:54:56;;;;;;;;;;;;;;;;;;5122269;28;19966;-79
2022/04/24 03:57:21;;;;;;;;;;;;;;;;;;5121236;28;20429;-78
2022/04/24 03:59:46;;;;;;;;;;;;;;;;;;5120669;28;19939;-79
2022/04/24 04:02:12;;;;;;;;;;;;;;;;;;5121351;28;19955;-79
2022/04/24 04:04:37;;;;;;;;;;;;;;;;;;5121611;28;19920;-79
2022/04/24 04:07:03;;;;;;;;;;;;;;;;;;5120921;28;19923;-79
2022/04/24 04:09:29;;;;;;;;;;;;;;;;;;5082897;28;19946;-79
2022/04/24 04:11:55;;;;;;;;;;;;;;;;;;5100933;28;20382;-79
2022/04/24 04:14:21;;;;;;;;;;;;;;;;;;5100822;28;19916;-79
2022/04/24 04:16:47;;;;;;;;;;;;;;;;;;5100539;28;19916;-78
2022/04/24 04:19:12;;;;;;;;;;;;;;;;;;5100294;28;19961;-79
2022/04/24 04:21:38;;;;;;;;;;;;;;;;;;5100463;28;19923;-78
2022/04/24 04:24:03;;;;;;;;;;;;;;;;;;5100486;28;19920;-79
2022/04/24 04:26:28;;;;;;;;;;;;;;;;;;5100123;28;19912;-79
2022/04/24 04:28:54;;;;;;;;;;;;;;;;;;5099517;28;20447;-79
2022/04/24 04:31:19;;;;;;;;;;;;;;;;;;5082593;28;19917;-79
2022/04/24 04:33:44;;;;;;;;;;;;;;;;;;5079430;28;19978;-79
2022/04/24 04:36:09;;;;;;;;;;;;;;;;;;5079031;28;19916;-78
2022/04/24 04:38:35;;;;;;;;;;;;;;;;;;5078918;28;19916;-79
2022/04/24 04:41:01;;;;;;;;;;;;;;;;;;5079842;28;19916;-79
2022/04/24 04:43:26;;;;;;;;;;;;;;;;;;5079319;28;20350;-80
2022/04/24 04:45:52;;;;;;;;;;;;;;;;;;5080622;28;19917;-80
2022/04/24 04:48:17;;;;;;;;;;;;;;;;;;5081831;28;20015;-80
2022/04/24 04:50:42;;;;;;;;;;;;;;;;;;5079952;28;19923;-81
2022/04/24 04:53:08;;;;;;;;;;;;;;;;;;5081386;28;19980;-79
2022/04/24 04:55:33;;;;;;;;;;;;;;;;;;5080927;28;20007;-79
2022/04/24 04:57:58;;;;;;;;;;;;;;;;;;5078998;28;19920;-79
2022/04/24 05:00:24;;;;;;;;;;;;;;;;;;5080209;28;19916;-78
2022/04/24 05:02:49;;;;;;;;;;;;;;;;;;5080546;28;19920;-81
2022/04/24 05:05:15;;;;;;;;;;;;;;;;;;5080176;28;20369;-79
2022/04/24 05:07:40;;;;;;;;;;;;;;;;;;5077717;28;19916;-78
2022/04/24 05:10:06;;;;;;;;;;;;;;;;;;5079440;28;19920;-79
2022/04/24 05:12:32;;;;;;;;;;;;;;;;;;5093280;28;19923;-78
2022/04/24 05:15:01;;;;;;;;;;;;;;;;;;5099635;28;19916;-78
2022/04/24 05:17:27;;;;;;;;;;;;;;;;;;5099569;28;19920;-78
2022/04/24 05:19:52;;;;;;;;;;;;;;;;;;5098311;28;20389;-80
2022/04/24 05:22:18;;;;;;;;;;;;;;;;;;5100109;28;19916;-79
2022/04/24 05:24:43;;;;;;;;;;;;;;;;;;5101474;28;19920;-79
2022/04/24 05:27:08;;;;;;;;;;;;;;;;;;5100598;28;20373;-78
2022/04/24 05:29:34;;;;;;;;;;;;;;;;;;5100612;28;19916;-79
2022/04/24 05:31:59;;;;;;;;;;;;;;;;;;5100378;28;19982;-81
2022/04/24 05:34:24;;;;;;;;;;;;;;;;;;5092795;28;19920;-79
2022/04/24 05:36:50;;;;;;;;;;;;;;;;;;5079545;28;19917;-78
2022/04/24 05:39:15;;;;;;;;;;;;;;;;;;5079653;28;19919;-79
2022/04/24 05:41:40;;;;;;;;;;;;;;;;;;5077942;28;19924;-79
2022/04/24 05:44:06;;;;;;;;;;;;;;;;;;5078609;28;19925;-79
2022/04/24 05:46:31;;;;;;;;;;;;;;;;;;5078720;28;19923;-79
2022/04/24 05:48:56;;;;;;;;;;;;;;;;;;5079140;28;19919;-80
2022/04/24 05:51:22;;;;;;;;;;;;;;;;;;5077418;28;20243;-79
2022/04/24 05:53:47;;;;;;;;;;;;;;;;;;5079648;28;19939;-79
2022/04/24 05:56:12;;;;;;;;;;;;;;;;;;5078038;28;19928;-79
2022/04/24 05:58:38;;;;;;;;;;;;;;;;;;5115288;28;20274;-78
2022/04/24 06:01:03;;;;;;;;;;;;;;;;;;5121184;28;19916;-78
2022/04/24 06:03:28;;;;;;;;;;;;;;;;;;5120428;28;20389;-79
2022/04/24 06:05:54;;;;;;;;;;;;;;;;;;5120762;28;19920;-80
2022/04/24 06:08:19;;;;;;;;;;;;;;;;;;5100346;28;19959;-80
2022/04/24 06:10:44;;;;;;;;;;;;;;;;;;5096960;28;19967;-77
2022/04/24 06:13:10;;;;;;;;;;;;;;;;;;5097839;28;19916;-77
2022/04/24 06:15:38;;;;;;;;;;;;;;;;;;5098365;28;19927;-80
2022/04/24 06:18:03;;;;;;;;;;;;;;;;;;5099046;28;19923;-80
2022/04/24 06:20:29;;;;;;;;;;;;;;;;;;5100228;28;19916;-79
2022/04/24 06:22:55;;;;;;;;;;;;;;;;;;5100170;28;19927;-80
2022/04/24 06:25:31;;;;;;;;;;;;;;;;;;5100429;28;20007;-81
2022/04/24 06:27:56;;;;;;;;;;;;;;;;;;5097855;28;19927;-79
2022/04/24 06:30:23;;;;;;;;;;;;;;;;;;5106305;28;19916;-79
2022/04/24 06:32:48;;;;;;;;;;;;;;;;;;5101225;28;19916;-82
2022/04/24 06:35:14;;;;;;;;;;;;;;;;;;5096087;28;19923;-79
2022/04/24 06:37:41;;;;;;;;;;;;;;;;;;5077955;28;19917;-79
2022/04/24 06:40:08;;;;;;;;;;;;;;;;;;5076546;28;20306;-79
2022/04/24 06:42:33;;;;;;;;;;;;;;;;;;5076066;28;20281;-80
2022/04/24 06:44:59;;;;;;;;;;;;;;;;;;5058926;28;19916;-80
2022/04/24 06:47:24;;;;;;;;;;;;;;;;;;5076918;28;20016;-80
2022/04/24 06:49:49;;;;;;;;;;;;;;;;;;5077101;28;19963;-80
2022/04/24 06:52:15;;;;;;;;;;;;;;;;;;5079728;28;19920;-80
2022/04/24 06:54:40;;;;;;;;;;;;;;;;;;5082789;28;19912;-80
2022/04/24 06:57:06;;;;;;;;;;;;;;;;;;5082722;28;20011;-79
2022/04/24 06:59:31;;;;;;;;;;;;;;;;;;5082342;28;19968;-82
2022/04/24 07:01:56;;;;;;;;;;;;;;;;;;5091142;28;19921;-81
2022/04/24 07:04:21;;;;;;;;;;;;;;;;;;5095625;28;19920;-79
2022/04/24 07:06:47;;;;;;;;;;;;;;;;;;5104370;28;19916;-81
2022/04/24 07:09:13;;;;;;;;;;;;;;;;;;5094254;28;20275;-79
2022/04/24 07:11:40;;;;;;;;;;;;;;;;;;5111238;28;19916;-80
2022/04/24 07:14:06;;;;;;;;;;;;;;;;;;5111466;28;19916;-79
2022/04/24 07:16:33;;;;;;;;;;;;;;;;;;5110558;28;20358;-79
2022/04/24 07:18:59;;;;;;;;;;;;;;;;;;5110139;28;19943;-79
2022/04/24 07:21:25;;;;;;;;;;;;;;;;;;5110888;28;19916;-79
2022/04/24 07:23:50;;;;;;;;;;;;;;;;;;5110634;28;19924;-79
2022/04/24 07:26:16;;;;;;;;;;;;;;;;;;5109075;28;19996;-78
2022/04/24 07:28:41;;;;;;;;;;;;;;;;;;5108347;28;19916;-79
2022/04/24 07:31:06;;;;;;;;;;;;;;;;;;5106663;28;19926;-80
2022/04/24 07:33:32;;;;;;;;;;;;;;;;;;5108397;28;19963;-79
2022/04/24 07:35:57;;;;;;;;;;;;;;;;;;5106877;28;19916;-79
2022/04/24 07:38:22;;;;;;;;;;;;;;;;;;5108542;28;19922;-79
2022/04/24 07:40:48;;;;;;;;;;;;;;;;;;5101155;28;19963;-77
2022/04/24 07:43:13;;;;;;;;;;;;;;;;;;5101045;28;19904;-80
2022/04/24 07:45:48;;;;;;;;;;;;;;;;;;5106585;28;19916;-79
2022/04/24 07:48:14;;;;;;;;;;;;;;;;;;5109376;28;19943;-80
2022/04/24 07:50:41;;;;;;;;;;;;;;;;;;5113573;28;19916;-79
2022/04/24 07:53:06;;;;;;;;;;;;;;;;;;5112691;28;19916;-79
2022/04/24 07:55:32;;;;;;;;;;;;;;;;;;5111082;28;19923;-78
2022/04/24 07:57:57;;;;;;;;;;;;;;;;;;5110707;28;19952;-78
2022/04/24 08:00:23;;;;;;;;;;;;;;;;;;5109984;28;19923;-79
2022/04/24 08:03:01;;;;;;;;;;;;;;;;;;5110706;28;19982;-78
2022/04/24 08:05:29;;;;;;;;;;;;;;;;;;5109751;28;20472;-79
2022/04/24 08:07:55;;;;;;;;;;;;;;;;;;5109786;28;19920;-80
2022/04/24 08:10:21;;;;;;;;;;;;;;;;;;5108053;28;19916;-77
2022/04/24 08:12:47;;;;;;;;;;;;;;;;;;5101552;28;19926;-81
2022/04/24 08:15:13;;;;;;;;;;;;;;;;;;5103386;28;19923;-77
2022/04/24 08:17:39;;;;;;;;;;;;;;;;;;5097491;28;19912;-75
2022/04/24 08:20:05;;;;;;;;;;;;;;;;;;5094605;28;20069;-76
2022/04/24 08:22:39;;;;;;;;;;;;;;;;;;5095816;28;19916;-76
2022/04/24 08:25:06;;;;;;;;;;;;;;;;;;5094306;28;20354;-76
2022/04/24 08:27:31;;;;;;;;;;;;;;;;;;5095458;28;20362;-76
2022/04/24 08:29:57;;;;;;;;;;;;;;;;;;5094864;28;19923;-75
2022/04/24 08:32:24;;;;;;;;;;;;;;;;;;5095628;28;19916;-77
2022/04/24 08:34:49;;;;;;;;;;;;;;;;;;5095541;28;19969;-77
2022/04/24 08:37:15;;;;;;;;;;;;;;;;;;5094367;28;19916;-76
2022/04/24 08:39:40;;;;;;;;;;;;;;;;;;5095496;28;19917;-77
2022/04/24 08:42:07;;;;;;;;;;;;;;;;;;5095284;28;19968;-76
2022/04/24 08:44:33;;;;;;;;;;;;;;;;;;5094634;28;20011;-76
2022/04/24 08:46:58;;;;;;;;;;;;;;;;;;5056904;28;20369;-77
2022/04/24 08:49:24;;;;;;;;;;;;;;;;;;5075408;28;19920;-77
2022/04/24 08:51:50;;;;;;;;;;;;;;;;;;5074964;28;20290;-77
2022/04/24 08:54:16;;;;;;;;;;;;;;;;;;5073783;28;19916;-76
2022/04/24 08:56:42;;;;;;;;;;;;;;;;;;5072839;28;19916;-76
2022/04/24 08:59:07;;;;;;;;;;;;;;;;;;5075767;28;20034;-78
2022/04/24 09:01:41;;;;;;;;;;;;;;;;;;5077806;28;19917;-80
2022/04/24 09:04:06;;;;;;;;;;;;;;;;;;5080755;28;20298;-76
2022/04/24 09:06:32;;;;;;;;;;;;;;;;;;5080024;28;19923;-79
2022/04/24 09:09:04;;;;;;;;;;;;;;;;;;5082438;28;19932;-77
2022/04/24 09:11:30;;;;;;;;;;;;;;;;;;5082781;28;20464;-78
2022/04/24 09:16:46;;;;;;;;;;;;;;;;;;5116327;28;19916;-81
2022/04/24 09:19:24;;;;;;;;;;;;;;;;;;5084117;28;19917;-81
2022/04/24 09:21:51;;;;;;;;;;;;;;;;;;5083894;28;19928;-84
2022/04/24 09:24:16;;;;;;;;;;;;;;;;;;5080457;28;19934;-84
2022/04/24 09:26:49;;;;;;;;;;;;;;;;;;5082299;28;19917;-84
2022/04/24 09:29:14;;;;;;;;;;;;;;;;;;5090174;28;19917;-83
2022/04/24 09:31:46;;;;;;;;;;;;;;;;;;5085388;28;19962;-80
2022/04/24 09:34:12;;;;;;;;;;;;;;;;;;5076698;28;19916;-78
2022/04/24 09:36:37;;;;;;;;;;;;;;;;;;5074970;28;20320;-77
2022/04/24 09:39:03;;;;;;;;;;;;;;;;;;5095139;28;19916;-77
2022/04/24 09:41:28;;;;;;;;;;;;;;;;;;5091877;28;19916;-76
2022/04/24 09:43:53;;;;;;;;;;;;;;;;;;5083225;28;19924;-76
2022/04/24 09:46:26;;;;;;;;;;;;;;;;;;5092724;28;19923;-77
2022/04/24 09:48:52;;;;;;;;;;;;;;;;;;5092437;28;19979;-76
2022/04/24 09:51:17;;;;;;;;;;;;;;;;;;5092757;28;19920;-77
2022/04/24 09:53:43;;;;;;;;;;;;;;;;;;5094239;28;19916;-78
2022/04/24 09:56:09;;;;;;;;;;;;;;;;;;5096525;28;20362;-78
2022/04/24 09:58:37;;;;;;;;;;;;;;;;;;5097550;28;19920;-78
2022/04/24 10:01:04;;;;;;;;;;;;;;;;;;5076902;28;19924;-82
2022/04/24 10:03:30;;;;;;;;;;;;;;;;;;5089817;28;21858;-76
2022/04/24 10:05:56;;;;;;;;;;;;;;;;;;5085184;28;19958;-76
2022/04/24 10:08:22;;;;;;;;;;;;;;;;;;5090258;28;19962;-78
2022/04/24 10:10:48;;;;;;;;;;;;;;;;;;5096542;28;19975;-79
2022/04/24 10:13:14;;;;;;;;;;;;;;;;;;5078568;28;19995;-83
2022/04/24 10:15:45;;;;;;;;;;;;;;;;;;5097738;28;19923;-79
2022/04/24 10:18:13;;;;;;;;;;;;;;;;;;5101414;28;19916;-84
2022/04/24 10:20:42;;;;;;;;;;;;;;;;;;5102262;28;19951;-86
2022/04/24 10:23:09;;;;;;;;;;;;;;;;;;5088562;28;19924;-81
2022/04/24 10:25:38;;;;;;;;;;;;;;;;;;5093141;28;20356;-81
2022/04/24 10:28:14;;;;;;;;;;;;;;;;;;5083319;28;19917;-75
2022/04/24 10:30:40;;;;;;;;;;;;;;;;;;5075551;28;19917;-74
2022/04/24 10:33:14;;;;;;;;;;;;;;;;;;5080052;28;19923;-79
2022/04/24 10:35:48;;;;;;;;;;;;;;;;;;5087746;28;19916;-77
2022/04/24 10:38:13;;;;;;;;;;;;;;;;;;5097575;28;19923;-78
2022/04/24 10:40:39;;;;;;;;;;;;;;;;;;5086910;28;19917;-82
2022/04/24 10:43:07;;;;;;;;;;;;;;;;;;5083904;28;19931;-81
2022/04/24 10:45:44;;;;;;;;;;;;;;;;;;5084329;28;19917;-84
2022/04/24 10:48:13;;;;;;;;;;;;;;;;;;5099753;28;20299;-85
2022/04/24 10:50:49;;;;;;;;;;;;;;;;;;5089367;28;19917;-81
2022/04/24 10:53:14;;;;;;;;;;;;;;;;;;5084621;28;19916;-82
2022/04/24 10:55:40;;;;;;;;;;;;;;;;;;5101182;28;20056;-79
2022/04/24 10:58:05;;;;;;;;;;;;;;;;;;5101422;28;19920;-82
2022/04/24 11:00:35;;;;;;;;;;;;;;;;;;5091878;28;19923;-82
2022/04/24 11:03:05;;;;;;;;;;;;;;;;;;5088710;28;19924;-81
2022/04/24 11:05:35;;;;;;;;;;;;;;;;;;5089983;28;19959;-77
2022/04/24 11:08:03;;;;;;;;;;;;;;;;;;5096189;28;19922;-76
2022/04/24 11:10:29;;;;;;;;;;;;;;;;;;5096282;28;20007;-76
2022/04/24 11:12:55;;;;;;;;;;;;;;;;;;5095318;28;19969;-77
2022/04/24 11:15:21;;;;;;;;;;;;;;;;;;5096707;28;19923;-77
2022/04/24 11:17:46;;;;;;;;;;;;;;;;;;5096983;28;19920;-77
2022/04/24 11:20:15;;;;;;;;;;;;;;;;;;5096395;28;19916;-77
2022/04/24 11:22:59;;;;;;;;;;;;;;;;;;5095706;28;20350;-76
2022/04/24 11:25:25;;;;;;;;;;;;;;;;;;5096189;28;20326;-77
2022/04/24 11:27:51;;;;;;;;;;;;;;;;;;5096818;28;20427;-75
2022/04/24 11:30:18;;;;;;;;;;;;;;;;;;5096065;28;19924;-76
2022/04/24 11:32:57;;;;;;;;;;;;;;;;;;5095356;28;20010;-75
2022/04/24 11:35:23;;;;;;;;;;;;;;;;;;5096109;28;20483;-76
2022/04/24 11:37:48;;;;;;;;;;;;;;;;;;5095934;28;19939;-76
2022/04/24 11:40:14;;;;;;;;;;;;;;;;;;5093765;28;19916;-76
2022/04/24 11:42:39;;;;;;;;;;;;;;;;;;5092291;28;20021;-76
2022/04/24 11:50:50;;;;;;;;;;;;;;;;;;5096999;28;19957;-76
2022/04/24 11:53:15;;;;;;;;;;;;;;;;;;5096053;28;19916;-75
2022/04/24 11:58:26;;;;;;;;;;;;;;;;;;5095470;28;19920;-75
2022/04/24 12:00:51;;;;;;;;;;;;;;;;;;5094408;28;19961;-77
2022/04/24 12:03:16;;;;;;;;;;;;;;;;;;5095513;28;20308;-75
2022/04/24 12:05:42;;;;;;;;;;;;;;;;;;5095716;28;19912;-76
2022/04/24 12:08:11;;;;;;;;;;;;;;;;;;5094122;28;19916;-75
2022/04/24 12:10:42;;;;;;;;;;;;;;;;;;5094871;28;20617;-76
2022/04/24 12:13:08;;;;;;;;;;;;;;;;;;5094567;28;20027;-76
2022/04/24 12:15:34;;;;;;;;;;;;;;;;;;5095709;28;20002;-77
2022/04/24 12:18:00;;;;;;;;;;;;;;;;;;5094293;28;20018;-75
2022/04/24 12:20:36;;;;;;;;;;;;;;;;;;5095670;28;19924;-75
2022/04/24 12:23:08;;;;;;;;;;;;;;;;;;5095465;28;19916;-75
2022/04/24 12:25:44;;;;;;;;;;;;;;;;;;5095485;28;20382;-76
2022/04/24 12:28:09;;;;;;;;;;;;;;;;;;5087753;28;20512;-75
2022/04/24 12:30:35;;;;;;;;;;;;;;;;;;5084432;28;20007;-76
2022/04/24 12:33:07;;;;;;;;;;;;;;;;;;5093351;28;20274;-75
2022/04/24 12:35:35;;;;;;;;;;;;;;;;;;5093917;28;19927;-75
2022/04/24 12:38:11;;;;;;;;;;;;;;;;;;5095139;28;19916;-75
2022/04/24 12:40:37;;;;;;;;;;;;;;;;;;5093790;28;20433;-75
2022/04/24 12:43:02;;;;;;;;;;;;;;;;;;5093503;28;19942;-75
2022/04/24 12:45:27;;;;;;;;;;;;;;;;;;5095290;28;19962;-75
2022/04/24 12:47:53;;;;;;;;;;;;;;;;;;5095056;28;19916;-75
2022/04/24 12:50:18;;;;;;;;;;;;;;;;;;5094486;28;20441;-75
2022/04/24 12:52:44;;;;;;;;;;;;;;;;;;5094030;28;19922;-75
2022/04/24 12:55:09;;;;;;;;;;;;;;;;;;5094141;28;19955;-75
2022/04/24 12:57:35;;;;;;;;;;;;;;;;;;5092385;28;19920;-75
2022/04/24 13:00:01;;;;;;;;;;;;;;;;;;5091795;28;20014;-75
2022/04/24 13:02:27;;;;;;;;;;;;;;;;;;5092941;28;19920;-75
2022/04/24 13:04:53;;;;;;;;;;;;;;;;;;5092128;28;19920;-75
2022/04/24 13:07:18;;;;;;;;;;;;;;;;;;5092247;28;19916;-75
2022/04/24 13:09:43;;;;;;;;;;;;;;;;;;5090946;28;19973;-75
2022/04/24 13:12:11;;;;;;;;;;;;;;;;;;5094127;28;19912;-75
2022/04/24 13:14:36;;;;;;;;;;;;;;;;;;5094776;28;20302;-75
2022/04/24 13:19:47;;;;;;;;;;;;;;;;;;5094725;28;19926;-75
2022/04/24 13:22:13;;;;;;;;;;;;;;;;;;5094736;28;19912;-75
2022/04/24 13:24:38;;;;;;;;;;;;;;;;;;5094591;28;19920;-75
2022/04/24 13:27:03;;;;;;;;;;;;;;;;;;5094446;28;19916;-75
2022/04/24 13:29:29;;;;;;;;;;;;;;;;;;5094256;28;20388;-75
2022/04/24 13:31:54;;;;;;;;;;;;;;;;;;5093419;28;20018;-75
2022/04/24 13:34:19;;;;;;;;;;;;;;;;;;5094394;28;19999;-75
2022/04/24 13:36:45;;;;;;;;;;;;;;;;;;5094225;28;19916;-75
2022/04/24 13:39:10;;;;;;;;;;;;;;;;;;5092580;28;19916;-75
2022/04/24 13:41:36;;;;;;;;;;;;;;;;;;5094287;28;19974;-75
2022/04/24 13:44:01;;;;;;;;;;;;;;;;;;5094043;28;19920;-75
2022/04/24 13:46:30;;;;;;;;;;;;;;;;;;5093938;28;19969;-75
2022/04/24 13:48:55;;;;;;;;;;;;;;;;;;5094214;28;19988;-75
2022/04/24 13:51:22;;;;;;;;;;;;;;;;;;5092864;28;19920;-75
2022/04/24 13:53:47;;;;;;;;;;;;;;;;;;5094076;28;20011;-75
2022/04/24 13:56:13;;;;;;;;;;;;;;;;;;5094149;28;19956;-75
2022/04/24 13:58:39;;;;;;;;;;;;;;;;;;5093841;28;20254;-75
2022/04/24 14:01:06;;;;;;;;;;;;;;;;;;5093900;28;20335;-75
2022/04/24 14:03:31;;;;;;;;;;;;;;;;;;5094302;28;19924;-75
2022/04/24 14:05:57;;;;;;;;;;;;;;;;;;5114390;28;20288;-75
2022/04/24 14:08:26;;;;;;;;;;;;;;;;;;5114245;28;19927;-75
2022/04/24 14:10:52;;;;;;;;;;;;;;;;;;5114169;28;20377;-75
2022/04/24 14:13:18;;;;;;;;;;;;;;;;;;5113850;28;19916;-75
2022/04/24 14:15:43;;;;;;;;;;;;;;;;;;5114165;28;20018;-75
2022/04/24 14:18:09;;;;;;;;;;;;;;;;;;5114356;28;19916;-75
2022/04/24 14:20:34;;;;;;;;;;;;;;;;;;5114210;28;19925;-75
2022/04/24 14:22:59;;;;;;;;;;;;;;;;;;5112943;28;19915;-75
2022/04/24 14:25:25;;;;;;;;;;;;;;;;;;5114049;28;20006;-75
2022/04/24 14:27:50;;;;;;;;;;;;;;;;;;5113879;28;20014;-75
2022/04/24 14:30:16;;;;;;;;;;;;;;;;;;5112806;28;19915;-75
2022/04/24 14:32:42;;;;;;;;;;;;;;;;;;5114219;28;19916;-75
2022/04/24 14:35:08;;;;;;;;;;;;;;;;;;5098043;28;19916;-75
2022/04/24 14:37:34;;;;;;;;;;;;;;;;;;5092055;28;19916;-75
2022/04/24 14:40:00;;;;;;;;;;;;;;;;;;5093763;28;20023;-75
2022/04/24 14:42:26;;;;;;;;;;;;;;;;;;5093313;28;19916;-75
2022/04/24 14:44:51;;;;;;;;;;;;;;;;;;5093629;28;19967;-75
2022/04/24 14:55:49;;;;;;;;;;;;;;;;;;5094632;28;19915;-74
2022/04/24 14:58:15;;;;;;;;;;;;;;;;;;5091551;28;19971;-75
2022/04/24 15:00:41;;;;;;;;;;;;;;;;;;5092866;28;19952;-75
2022/04/24 15:03:07;;;;;;;;;;;;;;;;;;5093235;28;19923;-77
2022/04/24 15:05:33;;;;;;;;;;;;;;;;;;5093699;28;19920;-76
2022/04/24 15:07:59;;;;;;;;;;;;;;;;;;5098809;28;19923;-79
2022/04/24 15:10:25;;;;;;;;;;;;;;;;;;5098175;28;20016;-79
2022/04/24 15:12:51;;;;;;;;;;;;;;;;;;5081804;28;19942;-79
2022/04/24 15:15:18;;;;;;;;;;;;;;;;;;5101489;28;19920;-79
2022/04/24 15:17:43;;;;;;;;;;;;;;;;;;5083788;28;19923;-79
2022/04/24 15:20:09;;;;;;;;;;;;;;;;;;5101268;28;19920;-79
2022/04/24 15:22:35;;;;;;;;;;;;;;;;;;5101762;28;19916;-79
2022/04/24 15:25:00;;;;;;;;;;;;;;;;;;5102462;28;19927;-79
2022/04/24 15:27:26;;;;;;;;;;;;;;;;;;5103156;28;19916;-79
2022/04/24 15:29:51;;;;;;;;;;;;;;;;;;5102242;28;19975;-79
2022/04/24 15:32:17;;;;;;;;;;;;;;;;;;5104606;28;19924;-79
2022/04/24 15:34:43;;;;;;;;;;;;;;;;;;5104153;28;19923;-79
2022/04/24 15:37:09;;;;;;;;;;;;;;;;;;5096493;28;19916;-79
2022/04/24 15:39:34;;;;;;;;;;;;;;;;;;5094665;28;19924;-80
2022/04/24 15:42:01;;;;;;;;;;;;;;;;;;5095541;28;19916;-80
2022/04/24 15:44:27;;;;;;;;;;;;;;;;;;5091762;28;19920;-79
2022/04/24 15:46:52;;;;;;;;;;;;;;;;;;5100101;28;21291;-79
2022/04/24 15:49:18;;;;;;;;;;;;;;;;;;5084626;28;19939;-80
2022/04/24 15:51:44;;;;;;;;;;;;;;;;;;5092718;28;19986;-80
2022/04/24 15:54:10;;;;;;;;;;;;;;;;;;5094313;28;19916;-79
2022/04/24 15:56:35;;;;;;;;;;;;;;;;;;5096417;28;19916;-79
2022/04/24 15:59:01;;;;;;;;;;;;;;;;;;5094366;28;19982;-79
2022/04/24 16:01:28;;;;;;;;;;;;;;;;;;5104696;28;20022;-79
2022/04/24 16:03:53;;;;;;;;;;;;;;;;;;5104752;28;19920;-80
2022/04/24 16:06:18;;;;;;;;;;;;;;;;;;5102167;28;19916;-79
2022/04/24 16:08:44;;;;;;;;;;;;;;;;;;5100356;28;19920;-79
2022/04/24 16:11:12;;;;;;;;;;;;;;;;;;5099734;28;19916;-81
2022/04/24 16:13:38;;;;;;;;;;;;;;;;;;5102301;28;19987;-80
2022/04/24 16:16:04;;;;;;;;;;;;;;;;;;5101489;28;19951;-80
2022/04/24 16:18:31;;;;;;;;;;;;;;;;;;5111705;28;19961;-80
2022/04/24 16:20:58;;;;;;;;;;;;;;;;;;5121270;28;19991;-80
2022/04/24 16:23:23;;;;;;;;;;;;;;;;;;5121690;28;19931;-80
2022/04/24 16:25:49;;;;;;;;;;;;;;;;;;5122014;28;19922;-80
2022/04/24 16:28:14;;;;;;;;;;;;;;;;;;5122221;28;19922;-80
2022/04/24 16:30:39;;;;;;;;;;;;;;;;;;5114020;27;19927;-80
2022/04/24 16:33:05;;;;;;;;;;;;;;;;;;5083726;28;20381;-80
2022/04/24 16:35:30;;;;;;;;;;;;;;;;;;5100591;28;19924;-80
2022/04/24 16:37:55;;;;;;;;;;;;;;;;;;5100710;28;19959;-80
2022/04/24 16:40:22;;;;;;;;;;;;;;;;;;5103539;28;20530;-80
2022/04/24 16:42:47;;;;;;;;;;;;;;;;;;5104981;28;19962;-80
2022/04/24 16:45:13;;;;;;;;;;;;;;;;;;5102074;28;19920;-80
2022/04/24 16:47:38;;;;;;;;;;;;;;;;;;5100601;28;20010;-80
2022/04/24 16:50:07;;;;;;;;;;;;;;;;;;5102294;28;19916;-80
2022/04/24 17:00:48;;;;;;;;;;;;;;;;;;5100037;28;19924;-78
2022/04/24 17:03:13;;;;;;;;;;;;;;;;;;5095361;28;19916;-80
2022/04/24 17:05:38;;;;;;;;;;;;;;;;;;5089326;28;19999;-80
2022/04/24 17:08:05;;;;;;;;;;;;;;;;;;5088319;28;20287;-80
2022/04/24 17:10:33;;;;;;;;;;;;;;;;;;5088563;28;19916;-79